sensor_id;sensor_type;location;lat;lon;timestamp;P1;durP1;ratioP1;P2;durP2;ratioP2
19343;SDS011;9808;52.402;16.678;2023-04-24T00:01:35;34.58;;;17.25;;
19343;SDS011;9808;52.402;16.678;2023-04-24T00:04:03;33.45;;;17.33;;
19343;SDS011;9808;52.402;16.678;2023-04-24T00:06:30;34.63;;;18.00;;
19343;SDS011;9808;52.402;16.678;2023-04-24T00:09:01;33.75;;;18.98;;
19343;SDS011;9808;52.402;16.678;2023-04-24T00:11:28;35.08;;;19.02;;
19343;SDS011;9808;52.402;16.678;2023-04-24T00:13:56;37.10;;;18.45;;
19343;SDS011;9808;52.402;16.678;2023-04-24T00:16:23;36.30;;;18.35;;
19343;SDS011;9808;52.402;16.678;2023-04-24T00:18:51;36.22;;;16.77;;
19343;SDS011;9808;52.402;16.678;2023-04-24T00:21:19;29.30;;;17.35;;
19343;SDS011;9808;52.402;16.678;2023-04-24T00:23:47;31.52;;;16.98;;
19343;SDS011;9808;52.402;16.678;2023-04-24T00:26:14;31.92;;;16.65;;
19343;SDS011;9808;52.402;16.678;2023-04-24T00:28:41;32.30;;;16.70;;
19343;SDS011;9808;52.402;16.678;2023-04-24T00:31:09;30.92;;;16.42;;
19343;SDS011;9808;52.402;16.678;2023-04-24T00:33:39;23.10;;;14.63;;
19343;SDS011;9808;52.402;16.678;2023-04-24T00:36:06;28.25;;;15.98;;
19343;SDS011;9808;52.402;16.678;2023-04-24T00:38:33;28.17;;;16.40;;
19343;SDS011;9808;52.402;16.678;2023-04-24T00:41:02;26.17;;;15.52;;
19343;SDS011;9808;52.402;16.678;2023-04-24T00:43:29;28.55;;;15.75;;
19343;SDS011;9808;52.402;16.678;2023-04-24T00:45:56;26.63;;;15.45;;
19343;SDS011;9808;52.402;16.678;2023-04-24T00:48:25;27.95;;;15.77;;
19343;SDS011;9808;52.402;16.678;2023-04-24T00:50:53;27.60;;;16.15;;
19343;SDS011;9808;52.402;16.678;2023-04-24T00:53:20;27.23;;;15.63;;
19343;SDS011;9808;52.402;16.678;2023-04-24T00:55:47;27.42;;;15.18;;
19343;SDS011;9808;52.402;16.678;2023-04-24T00:58:14;26.33;;;15.60;;
19343;SDS011;9808;52.402;16.678;2023-04-24T01:00:42;23.30;;;14.68;;
19343;SDS011;9808;52.402;16.678;2023-04-24T01:03:09;24.23;;;14.32;;
19343;SDS011;9808;52.402;16.678;2023-04-24T01:05:37;25.00;;;14.13;;
19343;SDS011;9808;52.402;16.678;2023-04-24T01:08:04;26.45;;;14.40;;
19343;SDS011;9808;52.402;16.678;2023-04-24T01:10:32;27.60;;;14.10;;
19343;SDS011;9808;52.402;16.678;2023-04-24T01:13:00;23.15;;;13.55;;
19343;SDS011;9808;52.402;16.678;2023-04-24T01:15:27;25.55;;;13.27;;
19343;SDS011;9808;52.402;16.678;2023-04-24T01:17:54;19.58;;;12.50;;
19343;SDS011;9808;52.402;16.678;2023-04-24T01:20:22;21.60;;;12.82;;
19343;SDS011;9808;52.402;16.678;2023-04-24T01:22:50;21.52;;;11.70;;
19343;SDS011;9808;52.402;16.678;2023-04-24T01:25:18;25.75;;;14.57;;
19343;SDS011;9808;52.402;16.678;2023-04-24T01:27:45;23.00;;;12.20;;
19343;SDS011;9808;52.402;16.678;2023-04-24T01:30:13;21.45;;;12.57;;
19343;SDS011;9808;52.402;16.678;2023-04-24T01:32:40;22.70;;;13.18;;
19343;SDS011;9808;52.402;16.678;2023-04-24T01:35:10;22.80;;;14.00;;
19343;SDS011;9808;52.402;16.678;2023-04-24T01:37:38;22.30;;;12.52;;
19343;SDS011;9808;52.402;16.678;2023-04-24T01:40:05;21.55;;;12.70;;
19343;SDS011;9808;52.402;16.678;2023-04-24T01:42:36;20.25;;;12.90;;
19343;SDS011;9808;52.402;16.678;2023-04-24T01:45:04;20.55;;;11.70;;
19343;SDS011;9808;52.402;16.678;2023-04-24T01:47:32;22.40;;;12.25;;
19343;SDS011;9808;52.402;16.678;2023-04-24T01:49:59;19.80;;;10.80;;
19343;SDS011;9808;52.402;16.678;2023-04-24T01:52:26;20.88;;;10.57;;
19343;SDS011;9808;52.402;16.678;2023-04-24T01:54:59;17.45;;;9.90;;
19343;SDS011;9808;52.402;16.678;2023-04-24T01:57:26;18.33;;;10.52;;
19343;SDS011;9808;52.402;16.678;2023-04-24T01:59:53;18.25;;;10.02;;
19343;SDS011;9808;52.402;16.678;2023-04-24T02:02:21;24.35;;;9.93;;
19343;SDS011;9808;52.402;16.678;2023-04-24T02:04:50;16.63;;;10.43;;
19343;SDS011;9808;52.402;16.678;2023-04-24T02:07:17;17.48;;;10.15;;
19343;SDS011;9808;52.402;16.678;2023-04-24T02:09:44;17.00;;;8.75;;
19343;SDS011;9808;52.402;16.678;2023-04-24T02:12:12;14.40;;;8.82;;
19343;SDS011;9808;52.402;16.678;2023-04-24T02:14:39;16.70;;;8.93;;
19343;SDS011;9808;52.402;16.678;2023-04-24T02:17:06;14.80;;;8.30;;
19343;SDS011;9808;52.402;16.678;2023-04-24T02:19:33;19.55;;;9.88;;
19343;SDS011;9808;52.402;16.678;2023-04-24T02:22:01;15.02;;;9.35;;
19343;SDS011;9808;52.402;16.678;2023-04-24T02:24:28;14.80;;;9.13;;
19343;SDS011;9808;52.402;16.678;2023-04-24T02:26:55;17.08;;;9.77;;
19343;SDS011;9808;52.402;16.678;2023-04-24T02:29:25;17.45;;;9.75;;
19343;SDS011;9808;52.402;16.678;2023-04-24T02:31:53;20.30;;;10.00;;
19343;SDS011;9808;52.402;16.678;2023-04-24T02:34:20;19.60;;;10.90;;
19343;SDS011;9808;52.402;16.678;2023-04-24T02:36:47;17.30;;;10.40;;
19343;SDS011;9808;52.402;16.678;2023-04-24T02:39:15;19.00;;;10.13;;
19343;SDS011;9808;52.402;16.678;2023-04-24T02:41:43;17.60;;;10.48;;
19343;SDS011;9808;52.402;16.678;2023-04-24T02:44:10;17.40;;;10.20;;
19343;SDS011;9808;52.402;16.678;2023-04-24T02:46:37;15.77;;;9.27;;
19343;SDS011;9808;52.402;16.678;2023-04-24T02:49:04;18.48;;;9.55;;
19343;SDS011;9808;52.402;16.678;2023-04-24T02:51:32;19.27;;;9.43;;
19343;SDS011;9808;52.402;16.678;2023-04-24T02:53:59;21.50;;;9.80;;
19343;SDS011;9808;52.402;16.678;2023-04-24T02:56:26;17.63;;;9.90;;
19343;SDS011;9808;52.402;16.678;2023-04-24T02:58:53;17.17;;;9.30;;
19343;SDS011;9808;52.402;16.678;2023-04-24T03:01:20;16.77;;;9.63;;
19343;SDS011;9808;52.402;16.678;2023-04-24T03:03:48;18.00;;;9.45;;
19343;SDS011;9808;52.402;16.678;2023-04-24T03:06:16;15.55;;;8.90;;
19343;SDS011;9808;52.402;16.678;2023-04-24T03:08:43;14.38;;;8.68;;
19343;SDS011;9808;52.402;16.678;2023-04-24T03:11:10;16.23;;;9.02;;
19343;SDS011;9808;52.402;16.678;2023-04-24T03:13:37;16.70;;;9.43;;
19343;SDS011;9808;52.402;16.678;2023-04-24T03:16:05;13.27;;;8.68;;
19343;SDS011;9808;52.402;16.678;2023-04-24T03:18:32;16.27;;;9.00;;
19343;SDS011;9808;52.402;16.678;2023-04-24T03:21:00;16.42;;;8.68;;
19343;SDS011;9808;52.402;16.678;2023-04-24T03:23:27;16.88;;;9.50;;
19343;SDS011;9808;52.402;16.678;2023-04-24T03:25:54;15.73;;;8.95;;
19343;SDS011;9808;52.402;16.678;2023-04-24T03:28:22;15.57;;;8.70;;
19343;SDS011;9808;52.402;16.678;2023-04-24T03:30:49;15.00;;;9.18;;
19343;SDS011;9808;52.402;16.678;2023-04-24T03:33:16;14.02;;;8.90;;
19343;SDS011;9808;52.402;16.678;2023-04-24T03:35:43;16.63;;;9.38;;
19343;SDS011;9808;52.402;16.678;2023-04-24T03:38:11;15.20;;;9.50;;
19343;SDS011;9808;52.402;16.678;2023-04-24T03:40:38;17.05;;;10.10;;
19343;SDS011;9808;52.402;16.678;2023-04-24T03:43:05;15.50;;;9.50;;
19343;SDS011;9808;52.402;16.678;2023-04-24T03:45:33;17.27;;;8.77;;
19343;SDS011;9808;52.402;16.678;2023-04-24T03:48:00;15.15;;;9.13;;
19343;SDS011;9808;52.402;16.678;2023-04-24T03:50:27;17.50;;;9.40;;
19343;SDS011;9808;52.402;16.678;2023-04-24T03:52:55;16.60;;;9.02;;
19343;SDS011;9808;52.402;16.678;2023-04-24T03:55:22;15.18;;;9.35;;
19343;SDS011;9808;52.402;16.678;2023-04-24T03:57:49;15.20;;;9.27;;
19343;SDS011;9808;52.402;16.678;2023-04-24T04:00:17;17.35;;;9.25;;
19343;SDS011;9808;52.402;16.678;2023-04-24T04:02:44;18.77;;;8.80;;
19343;SDS011;9808;52.402;16.678;2023-04-24T04:05:12;17.67;;;9.60;;
19343;SDS011;9808;52.402;16.678;2023-04-24T04:07:39;13.88;;;8.60;;
19343;SDS011;9808;52.402;16.678;2023-04-24T04:10:06;15.23;;;9.45;;
19343;SDS011;9808;52.402;16.678;2023-04-24T04:12:34;15.10;;;9.38;;
19343;SDS011;9808;52.402;16.678;2023-04-24T04:15:01;16.27;;;9.93;;
19343;SDS011;9808;52.402;16.678;2023-04-24T04:17:29;18.45;;;9.40;;
19343;SDS011;9808;52.402;16.678;2023-04-24T04:19:56;17.10;;;9.30;;
19343;SDS011;9808;52.402;16.678;2023-04-24T04:22:23;17.40;;;9.68;;
19343;SDS011;9808;52.402;16.678;2023-04-24T04:24:50;17.63;;;9.23;;
19343;SDS011;9808;52.402;16.678;2023-04-24T04:27:18;23.92;;;10.68;;
19343;SDS011;9808;52.402;16.678;2023-04-24T04:29:47;15.90;;;9.60;;
19343;SDS011;9808;52.402;16.678;2023-04-24T04:32:14;14.52;;;9.57;;
19343;SDS011;9808;52.402;16.678;2023-04-24T04:34:42;18.45;;;10.07;;
19343;SDS011;9808;52.402;16.678;2023-04-24T04:37:11;17.90;;;9.95;;
19343;SDS011;9808;52.402;16.678;2023-04-24T04:39:39;15.38;;;9.82;;
19343;SDS011;9808;52.402;16.678;2023-04-24T04:42:07;16.80;;;9.98;;
19343;SDS011;9808;52.402;16.678;2023-04-24T04:44:34;16.55;;;10.25;;
19343;SDS011;9808;52.402;16.678;2023-04-24T04:47:02;17.73;;;10.75;;
19343;SDS011;9808;52.402;16.678;2023-04-24T04:49:32;16.45;;;10.48;;
19343;SDS011;9808;52.402;16.678;2023-04-24T04:52:00;17.25;;;10.82;;
19343;SDS011;9808;52.402;16.678;2023-04-24T04:54:27;18.77;;;10.82;;
19343;SDS011;9808;52.402;16.678;2023-04-24T04:56:55;21.23;;;10.77;;
19343;SDS011;9808;52.402;16.678;2023-04-24T04:59:23;17.63;;;10.47;;
19343;SDS011;9808;52.402;16.678;2023-04-24T05:01:54;16.75;;;10.20;;
19343;SDS011;9808;52.402;16.678;2023-04-24T05:04:21;17.95;;;10.05;;
19343;SDS011;9808;52.402;16.678;2023-04-24T05:06:49;19.50;;;10.95;;
19343;SDS011;9808;52.402;16.678;2023-04-24T05:09:17;17.13;;;10.80;;
19343;SDS011;9808;52.402;16.678;2023-04-24T05:11:44;20.65;;;10.73;;
19343;SDS011;9808;52.402;16.678;2023-04-24T05:14:11;17.05;;;10.02;;
19343;SDS011;9808;52.402;16.678;2023-04-24T05:16:39;17.83;;;10.38;;
19343;SDS011;9808;52.402;16.678;2023-04-24T05:19:06;21.92;;;10.55;;
19343;SDS011;9808;52.402;16.678;2023-04-24T05:21:33;22.17;;;10.30;;
19343;SDS011;9808;52.402;16.678;2023-04-24T05:24:01;17.15;;;10.20;;
19343;SDS011;9808;52.402;16.678;2023-04-24T05:26:28;18.60;;;11.13;;
19343;SDS011;9808;52.402;16.678;2023-04-24T05:28:55;16.90;;;10.27;;
19343;SDS011;9808;52.402;16.678;2023-04-24T05:31:22;16.90;;;10.27;;
19343;SDS011;9808;52.402;16.678;2023-04-24T05:33:50;16.77;;;10.32;;
19343;SDS011;9808;52.402;16.678;2023-04-24T05:36:17;20.38;;;10.40;;
19343;SDS011;9808;52.402;16.678;2023-04-24T05:38:44;27.73;;;10.05;;
19343;SDS011;9808;52.402;16.678;2023-04-24T05:41:12;15.63;;;9.98;;
19343;SDS011;9808;52.402;16.678;2023-04-24T05:43:39;13.30;;;9.10;;
19343;SDS011;9808;52.402;16.678;2023-04-24T05:46:06;15.48;;;9.35;;
19343;SDS011;9808;52.402;16.678;2023-04-24T05:48:33;19.98;;;10.60;;
19343;SDS011;9808;52.402;16.678;2023-04-24T05:51:01;17.23;;;10.27;;
19343;SDS011;9808;52.402;16.678;2023-04-24T05:53:28;23.13;;;10.27;;
19343;SDS011;9808;52.402;16.678;2023-04-24T05:55:56;17.52;;;10.55;;
19343;SDS011;9808;52.402;16.678;2023-04-24T05:58:23;16.63;;;10.25;;
19343;SDS011;9808;52.402;16.678;2023-04-24T06:00:50;16.38;;;10.45;;
19343;SDS011;9808;52.402;16.678;2023-04-24T06:03:18;16.30;;;11.00;;
19343;SDS011;9808;52.402;16.678;2023-04-24T06:05:45;15.38;;;9.93;;
19343;SDS011;9808;52.402;16.678;2023-04-24T06:08:12;18.73;;;10.80;;
19343;SDS011;9808;52.402;16.678;2023-04-24T06:10:39;19.25;;;10.88;;
19343;SDS011;9808;52.402;16.678;2023-04-24T06:13:07;16.30;;;10.48;;
19343;SDS011;9808;52.402;16.678;2023-04-24T06:15:34;17.08;;;9.80;;
19343;SDS011;9808;52.402;16.678;2023-04-24T06:18:02;17.27;;;10.55;;
19343;SDS011;9808;52.402;16.678;2023-04-24T06:20:29;17.38;;;9.48;;
19343;SDS011;9808;52.402;16.678;2023-04-24T06:22:57;16.20;;;10.25;;
19343;SDS011;9808;52.402;16.678;2023-04-24T06:25:25;14.98;;;9.60;;
19343;SDS011;9808;52.402;16.678;2023-04-24T06:27:53;16.88;;;10.20;;
19343;SDS011;9808;52.402;16.678;2023-04-24T06:30:21;21.10;;;11.10;;
19343;SDS011;9808;52.402;16.678;2023-04-24T06:32:48;16.23;;;9.90;;
19343;SDS011;9808;52.402;16.678;2023-04-24T06:35:15;18.63;;;10.00;;
19343;SDS011;9808;52.402;16.678;2023-04-24T06:37:42;16.27;;;10.20;;
19343;SDS011;9808;52.402;16.678;2023-04-24T06:40:09;17.90;;;10.25;;
19343;SDS011;9808;52.402;16.678;2023-04-24T06:42:37;16.80;;;10.15;;
19343;SDS011;9808;52.402;16.678;2023-04-24T06:45:04;18.80;;;11.05;;
19343;SDS011;9808;52.402;16.678;2023-04-24T06:47:32;18.48;;;10.25;;
19343;SDS011;9808;52.402;16.678;2023-04-24T06:49:59;15.60;;;10.57;;
19343;SDS011;9808;52.402;16.678;2023-04-24T06:52:26;19.02;;;10.70;;
19343;SDS011;9808;52.402;16.678;2023-04-24T06:54:59;18.48;;;11.30;;
19343;SDS011;9808;52.402;16.678;2023-04-24T06:57:27;26.05;;;11.60;;
19343;SDS011;9808;52.402;16.678;2023-04-24T06:59:54;20.10;;;11.35;;
19343;SDS011;9808;52.402;16.678;2023-04-24T07:02:21;17.02;;;11.40;;
19343;SDS011;9808;52.402;16.678;2023-04-24T07:04:49;21.83;;;11.60;;
19343;SDS011;9808;52.402;16.678;2023-04-24T07:07:16;17.85;;;10.50;;
19343;SDS011;9808;52.402;16.678;2023-04-24T07:09:43;18.25;;;10.85;;
19343;SDS011;9808;52.402;16.678;2023-04-24T07:12:11;16.40;;;10.55;;
19343;SDS011;9808;52.402;16.678;2023-04-24T07:14:39;18.75;;;10.63;;
19343;SDS011;9808;52.402;16.678;2023-04-24T07:17:07;18.35;;;11.50;;
19343;SDS011;9808;52.402;16.678;2023-04-24T07:19:34;16.60;;;10.93;;
19343;SDS011;9808;52.402;16.678;2023-04-24T07:22:01;20.23;;;11.40;;
19343;SDS011;9808;52.402;16.678;2023-04-24T07:24:30;19.15;;;10.30;;
19343;SDS011;9808;52.402;16.678;2023-04-24T07:26:59;16.33;;;11.13;;
19343;SDS011;9808;52.402;16.678;2023-04-24T07:29:27;17.52;;;10.23;;
19343;SDS011;9808;52.402;16.678;2023-04-24T07:31:54;16.52;;;9.80;;
19343;SDS011;9808;52.402;16.678;2023-04-24T07:34:23;17.58;;;9.85;;
19343;SDS011;9808;52.402;16.678;2023-04-24T07:36:50;17.13;;;10.25;;
19343;SDS011;9808;52.402;16.678;2023-04-24T07:39:17;16.52;;;9.73;;
19343;SDS011;9808;52.402;16.678;2023-04-24T07:41:45;14.52;;;9.48;;
19343;SDS011;9808;52.402;16.678;2023-04-24T07:44:12;15.57;;;9.13;;
19343;SDS011;9808;52.402;16.678;2023-04-24T07:46:39;15.43;;;9.63;;
19343;SDS011;9808;52.402;16.678;2023-04-24T07:49:07;14.93;;;9.65;;
19343;SDS011;9808;52.402;16.678;2023-04-24T07:51:39;16.40;;;9.43;;
19343;SDS011;9808;52.402;16.678;2023-04-24T07:54:08;13.80;;;9.23;;
19343;SDS011;9808;52.402;16.678;2023-04-24T07:56:37;15.57;;;9.13;;
19343;SDS011;9808;52.402;16.678;2023-04-24T07:59:05;15.35;;;9.20;;
19343;SDS011;9808;52.402;16.678;2023-04-24T08:01:33;14.93;;;9.73;;
19343;SDS011;9808;52.402;16.678;2023-04-24T08:04:00;19.65;;;10.27;;
19343;SDS011;9808;52.402;16.678;2023-04-24T08:06:28;17.35;;;9.55;;
19343;SDS011;9808;52.402;16.678;2023-04-24T08:08:57;15.57;;;9.57;;
19343;SDS011;9808;52.402;16.678;2023-04-24T08:11:25;14.80;;;9.85;;
19343;SDS011;9808;52.402;16.678;2023-04-24T08:13:52;16.63;;;9.75;;
19343;SDS011;9808;52.402;16.678;2023-04-24T08:16:21;15.90;;;9.80;;
19343;SDS011;9808;52.402;16.678;2023-04-24T08:18:50;14.95;;;9.60;;
19343;SDS011;9808;52.402;16.678;2023-04-24T08:21:17;17.33;;;10.15;;
19343;SDS011;9808;52.402;16.678;2023-04-24T08:23:45;17.33;;;10.23;;
19343;SDS011;9808;52.402;16.678;2023-04-24T08:26:12;14.30;;;8.68;;
19343;SDS011;9808;52.402;16.678;2023-04-24T08:28:39;17.73;;;10.05;;
19343;SDS011;9808;52.402;16.678;2023-04-24T08:31:07;15.55;;;9.77;;
19343;SDS011;9808;52.402;16.678;2023-04-24T08:33:34;16.75;;;9.23;;
19343;SDS011;9808;52.402;16.678;2023-04-24T08:36:02;15.77;;;9.20;;
19343;SDS011;9808;52.402;16.678;2023-04-24T08:38:29;14.73;;;9.40;;
19343;SDS011;9808;52.402;16.678;2023-04-24T08:40:58;15.68;;;9.07;;
19343;SDS011;9808;52.402;16.678;2023-04-24T08:43:25;22.50;;;10.48;;
19343;SDS011;9808;52.402;16.678;2023-04-24T08:45:55;18.63;;;10.55;;
19343;SDS011;9808;52.402;16.678;2023-04-24T08:48:23;16.25;;;9.65;;
19343;SDS011;9808;52.402;16.678;2023-04-24T08:50:56;15.15;;;9.85;;
19343;SDS011;9808;52.402;16.678;2023-04-24T08:53:24;18.52;;;10.35;;
19343;SDS011;9808;52.402;16.678;2023-04-24T08:55:52;17.58;;;10.02;;
19343;SDS011;9808;52.402;16.678;2023-04-24T08:58:21;18.85;;;9.82;;
19343;SDS011;9808;52.402;16.678;2023-04-24T09:00:49;17.17;;;10.60;;
19343;SDS011;9808;52.402;16.678;2023-04-24T09:03:17;19.45;;;9.95;;
19343;SDS011;9808;52.402;16.678;2023-04-24T09:05:46;15.32;;;10.40;;
19343;SDS011;9808;52.402;16.678;2023-04-24T09:08:13;21.77;;;9.73;;
19343;SDS011;9808;52.402;16.678;2023-04-24T09:10:41;17.15;;;10.07;;
19343;SDS011;9808;52.402;16.678;2023-04-24T09:13:08;17.08;;;9.70;;
19343;SDS011;9808;52.402;16.678;2023-04-24T09:15:36;15.38;;;10.02;;
19343;SDS011;9808;52.402;16.678;2023-04-24T09:18:04;15.60;;;9.38;;
19343;SDS011;9808;52.402;16.678;2023-04-24T09:20:31;18.38;;;9.95;;
19343;SDS011;9808;52.402;16.678;2023-04-24T09:22:59;14.27;;;9.27;;
19343;SDS011;9808;52.402;16.678;2023-04-24T09:25:32;15.00;;;9.27;;
19343;SDS011;9808;52.402;16.678;2023-04-24T09:28:03;13.10;;;9.07;;
19343;SDS011;9808;52.402;16.678;2023-04-24T09:30:32;14.40;;;9.40;;
19343;SDS011;9808;52.402;16.678;2023-04-24T09:33:15;14.05;;;9.48;;
19343;SDS011;9808;52.402;16.678;2023-04-24T09:35:42;16.83;;;9.90;;
19343;SDS011;9808;52.402;16.678;2023-04-24T09:38:10;13.57;;;9.13;;
19343;SDS011;9808;52.402;16.678;2023-04-24T09:40:37;16.30;;;10.23;;
19343;SDS011;9808;52.402;16.678;2023-04-24T09:43:09;14.23;;;9.52;;
19343;SDS011;9808;52.402;16.678;2023-04-24T09:45:38;15.18;;;9.43;;
19343;SDS011;9808;52.402;16.678;2023-04-24T09:48:09;18.13;;;9.80;;
19343;SDS011;9808;52.402;16.678;2023-04-24T09:50:37;14.52;;;9.40;;
19343;SDS011;9808;52.402;16.678;2023-04-24T09:53:04;15.55;;;9.55;;
19343;SDS011;9808;52.402;16.678;2023-04-24T09:55:38;14.38;;;9.35;;
19343;SDS011;9808;52.402;16.678;2023-04-24T09:58:07;16.20;;;10.13;;
19343;SDS011;9808;52.402;16.678;2023-04-24T10:00:34;12.82;;;8.85;;
19343;SDS011;9808;52.402;16.678;2023-04-24T10:03:02;13.25;;;8.38;;
19343;SDS011;9808;52.402;16.678;2023-04-24T10:05:36;13.65;;;8.32;;
19343;SDS011;9808;52.402;16.678;2023-04-24T10:08:05;14.18;;;8.48;;
19343;SDS011;9808;52.402;16.678;2023-04-24T10:10:33;14.82;;;7.85;;
19343;SDS011;9808;52.402;16.678;2023-04-24T10:13:01;11.95;;;7.55;;
19343;SDS011;9808;52.402;16.678;2023-04-24T10:15:29;11.98;;;7.78;;
19343;SDS011;9808;52.402;16.678;2023-04-24T10:17:57;10.73;;;6.80;;
19343;SDS011;9808;52.402;16.678;2023-04-24T10:20:26;8.30;;;5.97;;
19343;SDS011;9808;52.402;16.678;2023-04-24T10:22:55;9.55;;;6.38;;
19343;SDS011;9808;52.402;16.678;2023-04-24T10:25:25;13.65;;;6.53;;
19343;SDS011;9808;52.402;16.678;2023-04-24T10:27:53;8.10;;;5.15;;
19343;SDS011;9808;52.402;16.678;2023-04-24T10:30:23;8.35;;;4.90;;
19343;SDS011;9808;52.402;16.678;2023-04-24T10:32:51;8.02;;;4.60;;
19343;SDS011;9808;52.402;16.678;2023-04-24T10:35:18;7.53;;;4.43;;
19343;SDS011;9808;52.402;16.678;2023-04-24T10:37:49;6.10;;;3.38;;
19343;SDS011;9808;52.402;16.678;2023-04-24T10:40:18;7.63;;;4.05;;
19343;SDS011;9808;52.402;16.678;2023-04-24T10:42:48;6.97;;;3.40;;
19343;SDS011;9808;52.402;16.678;2023-04-24T10:45:23;6.00;;;3.47;;
19343;SDS011;9808;52.402;16.678;2023-04-24T10:47:52;5.80;;;3.60;;
19343;SDS011;9808;52.402;16.678;2023-04-24T10:50:19;6.28;;;3.30;;
19343;SDS011;9808;52.402;16.678;2023-04-24T10:52:47;5.05;;;3.25;;
19343;SDS011;9808;52.402;16.678;2023-04-24T10:55:15;4.88;;;3.05;;
19343;SDS011;9808;52.402;16.678;2023-04-24T10:58:04;8.32;;;3.20;;
19343;SDS011;9808;52.402;16.678;2023-04-24T11:00:29;6.47;;;3.25;;
19343;SDS011;9808;52.402;16.678;2023-04-24T11:02:57;5.53;;;3.10;;
19343;SDS011;9808;52.402;16.678;2023-04-24T11:08:25;7.45;;;3.00;;
19343;SDS011;9808;52.402;16.678;2023-04-24T11:10:56;6.75;;;2.75;;
19343;SDS011;9808;52.402;16.678;2023-04-24T11:13:25;3.92;;;2.50;;
19343;SDS011;9808;52.402;16.678;2023-04-24T11:18:38;3.78;;;1.92;;
19343;SDS011;9808;52.402;16.678;2023-04-24T11:21:12;3.67;;;1.98;;
19343;SDS011;9808;52.402;16.678;2023-04-24T11:23:39;4.20;;;1.98;;
19343;SDS011;9808;52.402;16.678;2023-04-24T11:26:10;3.30;;;1.90;;
19343;SDS011;9808;52.402;16.678;2023-04-24T11:28:44;5.80;;;2.00;;
19343;SDS011;9808;52.402;16.678;2023-04-24T11:34:01;3.97;;;2.33;;
19343;SDS011;9808;52.402;16.678;2023-04-24T11:36:32;6.63;;;2.42;;
19343;SDS011;9808;52.402;16.678;2023-04-24T11:38:59;6.05;;;2.35;;
19343;SDS011;9808;52.402;16.678;2023-04-24T11:41:27;5.18;;;2.63;;
19343;SDS011;9808;52.402;16.678;2023-04-24T11:43:55;4.95;;;2.60;;
19343;SDS011;9808;52.402;16.678;2023-04-24T11:46:26;6.05;;;3.30;;
19343;SDS011;9808;52.402;16.678;2023-04-24T11:48:54;4.90;;;2.80;;
19343;SDS011;9808;52.402;16.678;2023-04-24T11:51:25;4.53;;;2.63;;
19343;SDS011;9808;52.402;16.678;2023-04-24T11:54:02;5.07;;;2.60;;
19343;SDS011;9808;52.402;16.678;2023-04-24T11:56:30;3.22;;;1.90;;
19343;SDS011;9808;52.402;16.678;2023-04-24T11:58:57;3.88;;;2.03;;
19343;SDS011;9808;52.402;16.678;2023-04-24T12:01:24;7.82;;;1.77;;
19343;SDS011;9808;52.402;16.678;2023-04-24T12:03:58;4.65;;;1.60;;
19343;SDS011;9808;52.402;16.678;2023-04-24T12:06:26;6.50;;;1.95;;
19343;SDS011;9808;52.402;16.678;2023-04-24T12:08:53;4.03;;;1.70;;
19343;SDS011;9808;52.402;16.678;2023-04-24T12:11:29;3.67;;;1.90;;
19343;SDS011;9808;52.402;16.678;2023-04-24T12:13:57;5.40;;;1.98;;
19343;SDS011;9808;52.402;16.678;2023-04-24T12:16:25;4.82;;;1.90;;
19343;SDS011;9808;52.402;16.678;2023-04-24T12:18:53;3.92;;;1.80;;
19343;SDS011;9808;52.402;16.678;2023-04-24T12:21:21;4.68;;;2.08;;
19343;SDS011;9808;52.402;16.678;2023-04-24T12:23:53;4.03;;;2.00;;
19343;SDS011;9808;52.402;16.678;2023-04-24T12:26:21;4.78;;;2.00;;
19343;SDS011;9808;52.402;16.678;2023-04-24T12:28:49;3.65;;;1.88;;
19343;SDS011;9808;52.402;16.678;2023-04-24T12:31:16;3.45;;;1.70;;
19343;SDS011;9808;52.402;16.678;2023-04-24T12:33:44;4.25;;;1.80;;
19343;SDS011;9808;52.402;16.678;2023-04-24T12:36:11;4.10;;;1.70;;
19343;SDS011;9808;52.402;16.678;2023-04-24T12:38:39;3.38;;;1.50;;
19343;SDS011;9808;52.402;16.678;2023-04-24T12:41:07;2.97;;;1.55;;
19343;SDS011;9808;52.402;16.678;2023-04-24T12:43:35;4.03;;;1.40;;
19343;SDS011;9808;52.402;16.678;2023-04-24T12:46:04;3.28;;;1.65;;
19343;SDS011;9808;52.402;16.678;2023-04-24T12:48:31;7.10;;;1.60;;
19343;SDS011;9808;52.402;16.678;2023-04-24T12:50:59;3.22;;;1.70;;
19343;SDS011;9808;52.402;16.678;2023-04-24T12:53:29;4.72;;;1.60;;
19343;SDS011;9808;52.402;16.678;2023-04-24T12:55:57;3.15;;;1.52;;
19343;SDS011;9808;52.402;16.678;2023-04-24T12:58:24;4.32;;;1.52;;
19343;SDS011;9808;52.402;16.678;2023-04-24T13:00:52;4.65;;;1.60;;
19343;SDS011;9808;52.402;16.678;2023-04-24T13:03:19;2.55;;;1.48;;
19343;SDS011;9808;52.402;16.678;2023-04-24T13:05:47;3.58;;;1.50;;
19343;SDS011;9808;52.402;16.678;2023-04-24T13:08:14;7.25;;;1.65;;
19343;SDS011;9808;52.402;16.678;2023-04-24T13:10:41;5.93;;;1.35;;
19343;SDS011;9808;52.402;16.678;2023-04-24T13:13:08;1.60;;;1.00;;
19343;SDS011;9808;52.402;16.678;2023-04-24T13:15:36;1.90;;;1.10;;
19343;SDS011;9808;52.402;16.678;2023-04-24T13:18:03;2.55;;;1.00;;
19343;SDS011;9808;52.402;16.678;2023-04-24T13:20:31;1.67;;;0.90;;
19343;SDS011;9808;52.402;16.678;2023-04-24T13:22:58;2.70;;;0.70;;
19343;SDS011;9808;52.402;16.678;2023-04-24T13:25:26;1.30;;;0.60;;
19343;SDS011;9808;52.402;16.678;2023-04-24T13:27:54;2.53;;;0.80;;
19343;SDS011;9808;52.402;16.678;2023-04-24T13:30:21;2.88;;;0.98;;
19343;SDS011;9808;52.402;16.678;2023-04-24T13:32:48;0.95;;;0.70;;
19343;SDS011;9808;52.402;16.678;2023-04-24T13:35:16;1.08;;;0.70;;
19343;SDS011;9808;52.402;16.678;2023-04-24T13:37:43;1.48;;;0.65;;
19343;SDS011;9808;52.402;16.678;2023-04-24T13:40:11;1.48;;;0.80;;
19343;SDS011;9808;52.402;16.678;2023-04-24T13:42:38;2.50;;;0.80;;
19343;SDS011;9808;52.402;16.678;2023-04-24T13:45:05;1.33;;;0.55;;
19343;SDS011;9808;52.402;16.678;2023-04-24T13:47:50;1.10;;;0.50;;
19343;SDS011;9808;52.402;16.678;2023-04-24T13:50:18;2.55;;;0.60;;
19343;SDS011;9808;52.402;16.678;2023-04-24T13:52:45;2.50;;;0.85;;
19343;SDS011;9808;52.402;16.678;2023-04-24T13:55:12;2.35;;;0.70;;
19343;SDS011;9808;52.402;16.678;2023-04-24T13:57:39;1.45;;;0.65;;
19343;SDS011;9808;52.402;16.678;2023-04-24T14:00:07;1.77;;;0.70;;
19343;SDS011;9808;52.402;16.678;2023-04-24T14:02:39;3.92;;;1.10;;
19343;SDS011;9808;52.402;16.678;2023-04-24T14:05:07;3.90;;;1.10;;
19343;SDS011;9808;52.402;16.678;2023-04-24T14:07:34;2.17;;;1.00;;
19343;SDS011;9808;52.402;16.678;2023-04-24T14:10:01;2.20;;;1.00;;
19343;SDS011;9808;52.402;16.678;2023-04-24T14:12:29;2.00;;;0.93;;
19343;SDS011;9808;52.402;16.678;2023-04-24T14:14:56;4.60;;;1.17;;
19343;SDS011;9808;52.402;16.678;2023-04-24T14:17:24;4.22;;;1.10;;
19343;SDS011;9808;52.402;16.678;2023-04-24T14:19:51;2.50;;;1.00;;
19343;SDS011;9808;52.402;16.678;2023-04-24T14:22:22;2.30;;;1.10;;
19343;SDS011;9808;52.402;16.678;2023-04-24T14:24:49;4.15;;;1.20;;
19343;SDS011;9808;52.402;16.678;2023-04-24T14:27:16;5.10;;;1.13;;
19343;SDS011;9808;52.402;16.678;2023-04-24T14:29:43;2.85;;;1.17;;
19343;SDS011;9808;52.402;16.678;2023-04-24T14:32:11;3.35;;;1.67;;
19343;SDS011;9808;52.402;16.678;2023-04-24T14:34:41;4.50;;;1.23;;
19343;SDS011;9808;52.402;16.678;2023-04-24T14:37:08;2.47;;;1.20;;
19343;SDS011;9808;52.402;16.678;2023-04-24T14:39:35;3.08;;;1.27;;
19343;SDS011;9808;52.402;16.678;2023-04-24T14:42:02;4.18;;;1.60;;
19343;SDS011;9808;52.402;16.678;2023-04-24T14:44:30;4.85;;;1.50;;
19343;SDS011;9808;52.402;16.678;2023-04-24T14:46:58;4.03;;;1.52;;